Time;durP1;ratioP1;P1;durP2;ratioP2;P2;SDS_P1;SDS_P2;PMS_P1;PMS_P2;Temp;Humidity;BMP_temperature;BMP_pressure;BME280_temperature;BME280_humidity;BME280_pressure;Samples;Min_cycle;Max_cycle;Signal;HPM_P1;HPM_P2
2022/04/13 00:01:52;;;;;;;6.63;2.80;;;21.80;47.90;;;;;;4897588;29;20032;-77
2022/04/13 00:04:18;;;;;;;5.43;2.70;;;21.80;48.00;;;;;;4902561;29;20044;-77
2022/04/13 00:06:44;;;;;;;6.97;3.03;;;21.80;47.90;;;;;;4897055;29;20036;-77
2022/04/13 00:09:10;;;;;;;6.47;2.75;;;21.70;47.80;;;;;;4894338;29;20056;-77
2022/04/13 00:11:36;;;;;;;6.15;2.55;;;21.80;47.90;;;;;;4896035;29;20039;-77
2022/04/13 00:14:03;;;;;;;5.93;2.72;;;21.70;48.00;;;;;;4895694;29;20041;-77
2022/04/13 00:16:29;;;;;;;8.50;2.70;;;21.80;47.90;;;;;;4896907;29;20214;-77
2022/04/13 00:18:55;;;;;;;9.48;2.92;;;21.70;47.90;;;;;;4895893;29;20108;-77
2022/04/13 00:21:25;;;;;;;5.97;2.67;;;21.70;48.60;;;;;;4896780;29;20119;-77
2022/04/13 00:23:51;;;;;;;9.95;2.90;;;21.70;47.90;;;;;;4896566;29;20111;-77
2022/04/13 00:26:17;;;;;;;8.07;2.83;;;21.70;47.90;;;;;;4879247;29;20028;-77
2022/04/13 00:28:43;;;;;;;7.75;2.90;;;21.70;48.00;;;;;;4896003;29;20036;-78
2022/04/13 00:31:09;;;;;;;7.18;2.80;;;21.70;48.00;;;;;;4896785;29;20119;-78
2022/04/13 00:33:37;;;;;;;5.68;2.50;;;21.70;48.00;;;;;;4919986;29;20052;-78
2022/04/13 00:36:03;;;;;;;8.63;2.75;;;21.70;48.00;;;;;;4896617;29;20084;-78
2022/04/13 00:38:28;;;;;;;5.43;2.63;;;21.70;48.00;;;;;;4894986;29;20668;-78
2022/04/13 00:40:55;;;;;;;6.18;2.67;;;21.70;47.90;;;;;;4912899;29;20114;-78
2022/04/13 00:43:24;;;;;;;6.13;2.78;;;21.70;48.00;;;;;;4911912;29;20067;-78
2022/04/13 00:45:51;;;;;;;5.18;2.80;;;21.70;47.90;;;;;;4911597;29;20040;-77
2022/04/13 00:48:30;;;;;;;5.50;2.80;;;21.70;48.00;;;;;;4895840;29;20031;-77
2022/04/13 00:50:56;;;;;;;5.63;2.53;;;21.70;48.00;;;;;;4913244;29;20103;-77
2022/04/13 00:53:25;;;;;;;10.63;2.70;;;21.70;47.90;;;;;;4913292;29;20024;-77
2022/04/13 00:55:55;;;;;;;;;;;21.70;48.00;;;;;;4899820;29;20036;-77
2022/04/13 00:58:23;;;;;;;9.73;3.05;;;21.70;47.80;;;;;;4895828;29;19930;-78
2022/04/13 01:00:50;;;;;;;6.88;2.63;;;21.70;47.90;;;;;;4896078;29;20040;-78
2022/04/13 01:03:19;;;;;;;5.35;2.72;;;21.70;47.80;;;;;;4894937;29;20561;-77
2022/04/13 01:05:47;;;;;;;7.45;2.97;;;21.70;48.00;;;;;;4894738;29;20092;-78
2022/04/13 01:08:13;;;;;;;8.77;2.53;;;21.70;47.90;;;;;;4905163;29;20048;-78
2022/04/13 01:10:43;;;;;;;6.85;2.83;;;21.70;47.90;;;;;;4912450;29;20396;-77
2022/04/13 01:13:10;;;;;;;5.72;2.58;;;21.70;47.90;;;;;;4912703;29;20036;-77
2022/04/13 01:15:36;;;;;;;9.68;3.03;;;21.70;48.00;;;;;;4911121;29;20039;-78
2022/04/13 01:18:03;;;;;;;10.00;2.72;;;21.70;47.90;;;;;;4895562;29;20042;-78
2022/04/13 01:20:29;;;;;;;6.88;2.42;;;21.70;48.00;;;;;;4912861;29;20062;-77
2022/04/13 01:22:55;;;;;;;5.15;2.50;;;21.70;48.00;;;;;;4894683;29;20072;-77
2022/04/13 01:25:21;;;;;;;7.70;3.10;;;21.70;48.00;;;;;;4859660;29;20021;-77
2022/04/13 01:27:47;;;;;;;5.80;2.92;;;21.70;48.00;;;;;;4905116;29;20033;-77
2022/04/13 01:30:14;;;;;;;7.47;2.72;;;21.70;48.00;;;;;;4894103;29;20032;-78
2022/04/13 01:32:42;;;;;;;4.20;2.33;;;21.70;48.50;;;;;;4895391;29;20033;-78
2022/04/13 01:35:08;;;;;;;4.15;2.40;;;21.70;48.00;;;;;;4895517;29;20025;-76
2022/04/13 01:37:34;;;;;;;7.78;2.42;;;21.70;48.00;;;;;;4895237;29;20100;-78
2022/04/13 01:40:00;;;;;;;5.95;2.90;;;21.70;47.90;;;;;;4894351;29;20028;-78
2022/04/13 01:42:28;;;;;;;6.35;2.67;;;21.70;48.00;;;;;;4893749;29;20039;-78
2022/04/13 01:44:54;;;;;;;5.10;2.45;;;21.70;48.10;;;;;;4894074;29;20032;-79
2022/04/13 01:47:20;;;;;;;6.47;2.50;;;21.70;48.10;;;;;;4895237;29;20036;-78
2022/04/13 01:49:45;;;;;;;5.75;2.67;;;21.70;48.10;;;;;;4877654;29;20048;-78
2022/04/13 01:52:11;;;;;;;3.70;2.45;;;21.70;48.10;;;;;;4895307;29;20067;-77
2022/04/13 01:54:38;;;;;;;4.97;2.35;;;21.70;48.20;;;;;;4895113;29;20024;-78
2022/04/13 01:57:04;;;;;;;4.20;2.60;;;21.70;48.30;;;;;;4900466;29;20032;-78
2022/04/13 01:59:29;;;;;;;7.22;2.17;;;21.70;48.10;;;;;;4916721;29;20084;-78
2022/04/13 02:01:56;;;;;;;6.13;2.42;;;21.70;48.20;;;;;;4884837;29;20039;-78
2022/04/13 02:04:25;;;;;;;5.65;2.90;;;21.70;48.30;;;;;;4897332;29;20040;-78
2022/04/13 02:06:52;;;;;;;3.88;2.45;;;21.70;48.20;;;;;;4911039;29;20055;-78
2022/04/13 02:09:18;;;;;;;4.53;2.60;;;21.70;48.00;;;;;;4898689;29;20107;-78
2022/04/13 02:11:46;;;;;;;6.82;2.78;;;21.70;48.20;;;;;;4898588;29;20403;-78
2022/04/13 02:14:12;;;;;;;5.88;2.85;;;21.70;48.20;;;;;;4899177;29;20033;-76
2022/04/13 02:16:39;;;;;;;4.97;2.78;;;21.70;48.20;;;;;;4897896;29;20379;-76
2022/04/13 02:19:07;;;;;;;5.90;2.50;;;21.70;48.00;;;;;;4881699;29;20048;-77
2022/04/13 02:21:34;;;;;;;4.40;2.47;;;21.70;48.00;;;;;;4914567;29;20040;-77
2022/04/13 02:23:59;;;;;;;6.90;2.60;;;21.70;48.20;;;;;;4886078;29;20036;-77
2022/04/13 02:26:26;;;;;;;7.03;2.88;;;21.70;48.10;;;;;;4913558;29;20082;-77
2022/04/13 02:28:53;;;;;;;5.15;2.53;;;21.70;48.30;;;;;;4898503;29;20181;-77
2022/04/13 02:31:19;;;;;;;5.00;2.78;;;21.70;48.50;;;;;;4866617;29;20029;-77
2022/04/13 02:33:45;;;;;;;5.10;2.90;;;21.70;48.50;;;;;;4898405;29;20381;-77
2022/04/13 02:36:11;;;;;;;5.68;2.67;;;21.70;48.60;;;;;;4897183;29;20036;-77
2022/04/13 02:38:37;;;;;;;5.25;2.50;;;21.70;48.70;;;;;;4898348;29;20043;-77
2022/04/13 02:41:02;;;;;;;4.85;2.58;;;21.70;48.70;;;;;;4897814;29;20028;-76
2022/04/13 02:43:28;;;;;;;4.45;2.58;;;21.70;48.60;;;;;;4913502;29;20036;-77
2022/04/13 02:45:54;;;;;;;4.80;2.65;;;21.70;48.70;;;;;;4915574;29;20036;-77
2022/04/13 02:48:24;;;;;;;3.30;2.10;;;21.70;48.70;;;;;;4913414;29;20386;-78
2022/04/13 02:50:52;;;;;;;4.40;2.50;;;21.70;48.40;;;;;;4897120;29;20043;-77
2022/04/13 02:53:18;;;;;;;5.43;2.85;;;21.70;48.40;;;;;;4914561;29;20115;-76
2022/04/13 02:55:44;;;;;;;4.40;2.67;;;21.70;48.30;;;;;;4907937;29;20044;-78
2022/04/13 02:58:10;;;;;;;6.85;2.75;;;21.70;48.60;;;;;;4896693;29;20036;-78
2022/04/13 03:00:35;;;;;;;5.07;2.90;;;21.70;48.40;;;;;;4927133;29;20055;-78
2022/04/13 03:03:02;;;;;;;4.97;2.72;;;21.70;48.80;;;;;;4928957;29;20399;-78
2022/04/13 03:05:29;;;;;;;4.10;2.50;;;21.70;48.70;;;;;;4901927;29;20040;-79
2022/04/13 03:07:55;;;;;;;5.65;2.50;;;21.70;48.70;;;;;;4921510;29;20434;-78
2022/04/13 03:10:20;;;;;;;5.80;2.53;;;21.70;48.80;;;;;;4896258;29;20092;-78
2022/04/13 03:12:46;;;;;;;5.18;2.70;;;21.70;48.70;;;;;;4898071;29;20485;-78
2022/04/13 03:15:12;;;;;;;5.05;2.67;;;21.70;48.70;;;;;;4898081;29;20032;-78
2022/04/13 03:17:38;;;;;;;4.13;2.55;;;21.70;48.70;;;;;;4896199;29;20116;-79
2022/04/13 03:20:04;;;;;;;5.70;2.72;;;21.70;48.60;;;;;;4897815;29;20119;-78
2022/04/13 03:22:30;;;;;;;6.47;2.72;;;21.70;48.30;;;;;;4896696;29;20029;-78
2022/04/13 03:24:58;;;;;;;5.38;2.80;;;21.70;48.50;;;;;;4913028;29;20111;-78
2022/04/13 03:27:24;;;;;;;5.55;2.97;;;21.70;48.20;;;;;;4897586;29;20152;-79
2022/04/13 03:29:50;;;;;;;5.68;2.65;;;21.70;48.20;;;;;;4922149;29;20797;-78
2022/04/13 03:32:15;;;;;;;6.82;2.88;;;21.70;48.40;;;;;;4897144;29;20047;-77
2022/04/13 03:34:41;;;;;;;6.03;2.80;;;21.70;48.60;;;;;;4897700;29;20048;-78
2022/04/13 03:37:07;;;;;;;3.90;2.58;;;21.70;48.50;;;;;;4913523;29;20021;-78
2022/04/13 03:39:32;;;;;;;5.90;3.17;;;21.70;49.00;;;;;;4913807;29;20030;-77
2022/04/13 03:41:58;;;;;;;5.57;2.90;;;21.70;48.50;;;;;;4914527;29;20036;-78
2022/04/13 03:44:24;;;;;;;7.28;2.60;;;21.70;48.70;;;;;;4913978;29;20028;-78
2022/04/13 03:46:50;;;;;;;5.07;2.72;;;21.70;48.70;;;;;;4913241;29;20033;-78
2022/04/13 03:49:16;;;;;;;5.32;2.70;;;21.70;48.80;;;;;;4913902;29;20024;-78
2022/04/13 03:51:42;;;;;;;5.82;2.58;;;21.70;48.80;;;;;;4913965;29;20435;-78
2022/04/13 03:54:08;;;;;;;4.97;2.55;;;21.70;49.00;;;;;;4912530;29;20467;-78
2022/04/13 03:56:34;;;;;;;6.65;2.90;;;21.70;49.00;;;;;;4912507;29;20127;-78
2022/04/13 03:59:00;;;;;;;5.13;2.65;;;21.70;48.80;;;;;;4913737;29;20028;-78
2022/04/13 04:01:26;;;;;;;5.35;2.53;;;21.70;49.00;;;;;;4913408;29;20087;-78
2022/04/13 04:03:53;;;;;;;5.85;2.97;;;21.70;48.90;;;;;;4912859;29;20096;-78
2022/04/13 04:06:19;;;;;;;7.38;2.90;;;21.70;49.00;;;;;;4912474;29;20039;-79
2022/04/13 04:08:45;;;;;;;7.30;2.80;;;21.70;49.60;;;;;;4912934;29;20032;-79
2022/04/13 04:11:11;;;;;;;6.18;2.50;;;21.70;48.80;;;;;;4912404;29;20043;-78
2022/04/13 04:13:37;;;;;;;7.32;3.05;;;21.70;48.90;;;;;;4912589;29;20232;-78
2022/04/13 04:16:03;;;;;;;8.52;2.75;;;21.70;48.90;;;;;;4901766;29;20485;-78
2022/04/13 04:18:29;;;;;;;5.22;2.70;;;21.70;48.80;;;;;;4904547;29;20043;-78
2022/04/13 04:20:55;;;;;;;5.97;2.80;;;21.70;48.80;;;;;;4908190;29;20112;-78
2022/04/13 04:23:21;;;;;;;4.10;2.38;;;21.70;49.20;;;;;;4906579;29;20124;-79
2022/04/13 04:25:47;;;;;;;6.55;2.90;;;21.70;48.60;;;;;;4913472;29;20028;-78
2022/04/13 04:28:13;;;;;;;7.13;3.00;;;21.70;48.60;;;;;;4912155;29;20036;-78
2022/04/13 04:30:40;;;;;;;6.28;2.92;;;21.70;48.80;;;;;;4904060;29;20041;-78
2022/04/13 04:33:06;;;;;;;5.07;2.53;;;21.80;49.10;;;;;;4896636;29;20025;-78
2022/04/13 04:35:33;;;;;;;6.00;2.70;;;21.80;49.10;;;;;;4896514;29;20021;-78
2022/04/13 04:37:59;;;;;;;5.53;2.85;;;21.80;48.70;;;;;;4899965;29;20028;-78
2022/04/13 04:40:26;;;;;;;6.78;2.90;;;21.80;48.30;;;;;;4893434;29;20033;-78
2022/04/13 04:42:52;;;;;;;4.82;2.75;;;21.80;48.30;;;;;;4919626;29;20036;-78
2022/04/13 04:45:19;;;;;;;7.40;3.15;;;21.70;48.10;;;;;;4911184;29;20418;-82
2022/04/13 04:47:46;;;;;;;6.07;2.80;;;21.70;48.10;;;;;;4911748;29;20560;-81
2022/04/13 04:50:11;;;;;;;6.65;2.88;;;21.80;48.20;;;;;;4911527;29;20032;-76
2022/04/13 04:52:44;;;;;;;6.85;3.05;;;21.80;48.40;;;;;;4912653;29;20050;-76
2022/04/13 04:55:12;;;;;;;5.32;3.00;;;21.80;48.50;;;;;;4911772;29;20032;-76
2022/04/13 04:57:38;;;;;;;5.32;3.20;;;21.80;48.10;;;;;;4901476;29;20029;-77
2022/04/13 05:00:06;;;;;;;5.03;2.83;;;21.80;48.20;;;;;;4895238;29;20107;-76
2022/04/13 05:02:32;;;;;;;5.28;2.95;;;21.80;48.20;;;;;;4891319;29;20036;-76
2022/04/13 05:04:58;;;;;;;6.05;2.97;;;21.80;48.30;;;;;;4895965;29;20670;-76
2022/04/13 05:07:23;;;;;;;5.78;3.03;;;21.70;48.20;;;;;;4906766;29;20028;-76
2022/04/13 05:09:49;;;;;;;6.15;2.85;;;21.80;48.10;;;;;;4912644;29;20040;-76
2022/04/13 05:12:15;;;;;;;5.45;2.70;;;21.80;48.00;;;;;;4912484;29;20032;-76
2022/04/13 05:14:40;;;;;;;6.70;3.40;;;21.80;48.00;;;;;;4912614;29;20909;-76
2022/04/13 05:17:06;;;;;;;8.57;3.35;;;21.80;48.10;;;;;;4910786;29;20099;-76
2022/04/13 05:19:34;;;;;;;4.85;3.03;;;21.80;48.00;;;;;;4910899;29;20047;-76
2022/04/13 05:21:59;;;;;;;6.32;3.20;;;21.80;47.90;;;;;;4911350;29;20036;-76
2022/04/13 05:24:25;;;;;;;6.35;3.20;;;21.80;47.90;;;;;;4912039;29;20043;-76
2022/04/13 05:26:51;;;;;;;5.82;3.25;;;21.80;47.90;;;;;;4912464;29;20080;-76
2022/04/13 05:29:16;;;;;;;6.03;3.15;;;21.80;47.90;;;;;;4911881;29;20714;-76
2022/04/13 05:31:42;;;;;;;6.57;3.35;;;21.80;47.90;;;;;;4911326;29;20142;-76
2022/04/13 05:34:08;;;;;;;7.43;3.42;;;21.80;47.90;;;;;;4927240;29;20032;-76
2022/04/13 05:36:34;;;;;;;9.50;3.78;;;21.80;47.90;;;;;;4911978;29;20032;-76
2022/04/13 05:39:00;;;;;;;8.00;3.22;;;21.80;47.90;;;;;;4910618;29;20044;-76
2022/04/13 05:41:26;;;;;;;8.95;3.47;;;21.90;48.00;;;;;;4911469;29;20039;-76
2022/04/13 05:43:51;;;;;;;7.10;3.83;;;21.80;47.90;;;;;;4912509;29;20036;-77
2022/04/13 05:46:17;;;;;;;9.30;4.00;;;21.80;48.20;;;;;;4912029;29;20131;-76
2022/04/13 05:48:43;;;;;;;6.43;3.28;;;21.80;48.00;;;;;;4911157;29;20110;-76
2022/04/13 05:51:09;;;;;;;6.50;3.25;;;21.80;48.30;;;;;;4911951;29;20063;-76
2022/04/13 05:53:37;;;;;;;6.82;3.45;;;21.80;48.30;;;;;;4910576;29;20146;-76
2022/04/13 05:56:04;;;;;;;6.10;3.53;;;21.80;48.20;;;;;;4912596;29;20561;-77
2022/04/13 05:58:29;;;;;;;7.07;3.30;;;21.80;48.30;;;;;;4911907;29;20087;-77
2022/04/13 06:00:55;;;;;;;6.30;3.60;;;21.80;48.50;;;;;;4911762;29;20032;-77
2022/04/13 06:03:23;;;;;;;6.50;3.20;;;21.80;48.70;;;;;;4910697;29;20036;-76
2022/04/13 06:05:52;;;;;;;5.95;3.30;;;21.80;48.80;;;;;;4911086;29;20056;-76
2022/04/13 06:08:18;;;;;;;6.37;3.33;;;21.80;48.80;;;;;;4911402;29;20028;-77
2022/04/13 06:10:43;;;;;;;6.22;3.45;;;21.80;48.90;;;;;;4911788;29;20087;-77
2022/04/13 06:13:09;;;;;;;6.00;3.30;;;21.90;48.80;;;;;;4911956;29;20032;-76
2022/04/13 06:15:35;;;;;;;7.63;3.42;;;21.80;49.00;;;;;;4910457;29;20036;-76
2022/04/13 06:18:01;;;;;;;9.63;4.15;;;21.80;49.20;;;;;;4908701;29;20033;-76
2022/04/13 06:20:27;;;;;;;7.47;3.80;;;21.80;48.80;;;;;;4910626;29;20071;-76
2022/04/13 06:22:52;;;;;;;7.20;3.42;;;21.80;49.00;;;;;;4894834;29;20075;-76
2022/04/13 06:25:18;;;;;;;7.28;3.42;;;21.80;49.00;;;;;;4893842;29;20025;-76
2022/04/13 06:27:45;;;;;;;7.88;3.63;;;21.80;49.10;;;;;;4894979;29;20036;-76
2022/04/13 06:30:12;;;;;;;8.68;3.95;;;21.80;48.70;;;;;;4906621;29;20115;-75
2022/04/13 06:32:40;;;;;;;7.93;3.95;;;21.80;49.00;;;;;;4894955;29;20497;-75
2022/04/13 06:35:07;;;;;;;9.27;4.55;;;21.80;49.20;;;;;;4897951;29;20037;-77
2022/04/13 06:37:34;;;;;;;6.72;3.85;;;21.90;49.20;;;;;;4899631;29;20040;-76
2022/04/13 06:40:00;;;;;;;8.07;3.80;;;21.80;49.20;;;;;;4912101;29;20024;-76
2022/04/13 06:42:26;;;;;;;7.68;4.35;;;21.80;49.20;;;;;;4895597;29;20041;-76
2022/04/13 06:44:54;;;;;;;7.25;3.95;;;21.90;49.20;;;;;;4914679;29;20044;-75
2022/04/13 06:47:21;;;;;;;9.32;4.38;;;21.90;49.40;;;;;;4914934;29;20172;-75
2022/04/13 06:49:47;;;;;;;7.65;4.13;;;21.90;49.30;;;;;;4914101;29;20036;-75
2022/04/13 06:52:13;;;;;;;7.55;3.90;;;21.90;49.50;;;;;;4914191;29;20036;-76
2022/04/13 06:54:40;;;;;;;10.55;4.60;;;21.90;49.60;;;;;;4885405;29;20037;-75
2022/04/13 06:57:06;;;;;;;8.02;4.38;;;21.90;49.70;;;;;;4907718;29;20036;-76
2022/04/13 06:59:31;;;;;;;12.15;4.15;;;21.90;49.80;;;;;;4906823;29;20028;-76
2022/04/13 07:01:57;;;;;;;9.75;4.50;;;21.90;49.60;;;;;;4913960;29;20401;-76
2022/04/13 07:04:23;;;;;;;10.55;4.72;;;22.00;49.80;;;;;;4914061;29;20083;-76
2022/04/13 07:06:48;;;;;;;8.02;4.05;;;22.00;50.00;;;;;;4913294;29;20262;-77
2022/04/13 07:09:14;;;;;;;14.88;6.38;;;22.00;51.20;;;;;;4913313;29;20048;-76
2022/04/13 07:11:39;;;;;;;15.43;9.10;;;21.90;49.10;;;;;;4913298;29;20043;-77
2022/04/13 07:14:05;;;;;;;18.30;9.68;;;21.70;42.30;;;;;;4913990;29;20537;-77
2022/04/13 07:16:31;;;;;;;22.48;8.93;;;21.50;37.90;;;;;;4902448;29;20076;-77
2022/04/13 07:18:57;;;;;;;21.98;8.70;;;21.40;39.30;;;;;;4913033;29;20409;-77
2022/04/13 07:21:23;;;;;;;17.75;8.35;;;21.50;41.10;;;;;;4902575;29;20036;-74
2022/04/13 07:23:49;;;;;;;20.42;12.18;;;21.60;42.60;;;;;;4896704;29;20095;-75
2022/04/13 07:26:15;;;;;;;24.35;11.80;;;21.50;39.10;;;;;;4904675;29;20036;-75
2022/04/13 07:28:40;;;;;;;17.00;10.30;;;21.40;37.40;;;;;;4907729;29;20039;-74
2022/04/13 07:31:06;;;;;;;22.13;11.02;;;21.30;36.40;;;;;;4897568;29;20088;-73
2022/04/13 07:33:32;;;;;;;20.80;9.50;;;21.20;36.20;;;;;;4896640;29;20040;-84
2022/04/13 07:35:58;;;;;;;16.77;9.25;;;21.10;36.20;;;;;;4911212;29;20024;-77
2022/04/13 07:38:24;;;;;;;18.48;8.98;;;21.20;37.00;;;;;;4910925;29;20477;-77
2022/04/13 07:40:50;;;;;;;26.52;12.57;;;21.30;38.00;;;;;;4895871;29;20482;-77
2022/04/13 07:43:16;;;;;;;27.98;15.88;;;21.40;37.70;;;;;;4895716;29;20039;-77
2022/04/13 07:45:43;;;;;;;28.77;16.70;;;21.40;38.40;;;;;;4895886;29;20076;-77
2022/04/13 07:48:09;;;;;;;21.45;14.20;;;21.50;38.90;;;;;;4896049;29;20282;-77
2022/04/13 07:50:34;;;;;;;19.42;12.15;;;21.50;39.30;;;;;;4897200;29;20076;-77
2022/04/13 07:53:00;;;;;;;20.25;10.80;;;21.50;38.80;;;;;;4896296;29;20409;-77
2022/04/13 07:55:26;;;;;;;17.98;10.38;;;21.60;39.30;;;;;;4896091;29;20033;-77
2022/04/13 07:57:52;;;;;;;20.20;10.68;;;21.60;39.20;;;;;;4894903;29;20040;-77
2022/04/13 08:00:18;;;;;;;19.90;10.02;;;21.70;39.20;;;;;;4896808;29;20375;-77
2022/04/13 08:02:44;;;;;;;19.17;9.10;;;21.70;39.50;;;;;;4928230;29;20040;-77
2022/04/13 08:05:14;;;;;;;17.90;9.43;;;21.70;39.70;;;;;;4913647;29;20084;-77
2022/04/13 08:07:41;;;;;;;19.15;8.80;;;21.70;39.90;;;;;;4912846;29;20496;-77
2022/04/13 08:10:08;;;;;;;17.05;9.10;;;21.70;40.10;;;;;;4894724;29;20032;-77
2022/04/13 08:12:33;;;;;;;16.67;8.50;;;21.80;40.20;;;;;;4896350;29;20052;-78
2022/04/13 08:15:00;;;;;;;18.48;9.48;;;21.80;40.50;;;;;;4880185;29;20379;-76
2022/04/13 08:17:26;;;;;;;17.70;8.98;;;21.80;40.60;;;;;;4895133;29;20040;-77
2022/04/13 08:19:53;;;;;;;16.65;8.27;;;21.80;40.90;;;;;;4883083;29;20104;-77
2022/04/13 08:22:23;;;;;;;16.13;9.00;;;21.80;40.90;;;;;;4896742;29;20442;-77
2022/04/13 08:24:49;;;;;;;;;;;21.80;41.00;;;;;;4895524;29;20035;-77
2022/04/13 08:27:14;;;;;;;14.95;8.13;;;21.80;41.50;;;;;;4895893;29;20042;-77
2022/04/13 08:29:40;;;;;;;15.15;8.13;;;21.80;41.60;;;;;;4896768;29;20398;-77
2022/04/13 08:32:06;;;;;;;13.43;8.02;;;21.80;41.60;;;;;;4896549;29;20040;-77
2022/04/13 08:34:32;;;;;;;18.30;8.30;;;21.80;41.90;;;;;;4896902;29;20020;-77
2022/04/13 08:36:58;;;;;;;14.38;8.38;;;21.80;42.00;;;;;;4894775;29;20032;-77
2022/04/13 08:39:23;;;;;;;14.52;8.00;;;21.80;42.00;;;;;;4894663;29;20029;-76
2022/04/13 08:41:57;;;;;;;16.23;8.23;;;21.80;42.20;;;;;;4896326;29;20105;-77
2022/04/13 08:44:38;;;;;;;15.82;7.97;;;21.80;42.40;;;;;;4879514;29;20050;-77
2022/04/13 08:47:12;;;;;;;13.65;7.25;;;21.80;42.50;;;;;;4910015;29;20032;-77
2022/04/13 08:49:40;;;;;;;13.15;7.57;;;21.80;42.70;;;;;;4912522;29;20138;-77
2022/04/13 08:52:08;;;;;;;13.73;7.60;;;21.80;43.00;;;;;;4896084;29;20088;-77
2022/04/13 08:54:53;;;;;;;16.05;8.40;;;21.80;43.00;;;;;;4911725;29;20024;-77
2022/04/13 08:57:21;;;;;;;12.63;7.47;;;21.80;43.00;;;;;;4908489;29;20384;-77
2022/04/13 09:00:16;;;;;;;13.27;7.53;;;21.80;43.10;;;;;;4912356;29;20531;-77
2022/04/13 09:02:51;;;;;;;17.02;8.82;;;21.80;43.20;;;;;;4911652;29;20036;-77
2022/04/13 09:05:22;;;;;;;11.77;7.10;;;21.90;43.20;;;;;;4911860;29;20039;-77
2022/04/13 09:07:53;;;;;;;14.52;7.88;;;21.90;43.50;;;;;;4911261;29;20054;-78
2022/04/13 09:10:24;;;;;;;16.90;8.32;;;21.90;43.70;;;;;;4912542;29;20028;-77
2022/04/13 09:12:51;;;;;;;15.65;8.35;;;21.90;43.80;;;;;;4910376;29;20040;-77
2022/04/13 09:15:16;;;;;;;17.10;8.43;;;21.90;43.90;;;;;;4912377;29;20051;-76
2022/04/13 09:17:44;;;;;;;14.85;8.10;;;21.90;43.80;;;;;;4912292;29;20036;-77
2022/04/13 09:20:11;;;;;;;15.75;8.23;;;21.90;44.10;;;;;;4910769;29;20035;-77
2022/04/13 09:22:41;;;;;;;14.18;7.60;;;21.90;44.00;;;;;;4894358;29;20548;-77
2022/04/13 09:25:08;;;;;;;13.82;7.55;;;21.90;44.30;;;;;;4895474;29;20029;-77
2022/04/13 09:27:36;;;;;;;15.18;8.15;;;21.90;44.30;;;;;;4923124;29;20040;-77
2022/04/13 09:30:03;;;;;;;13.65;8.02;;;21.90;44.00;;;;;;4894663;29;20371;-77
2022/04/13 09:32:30;;;;;;;15.88;8.27;;;21.90;44.50;;;;;;4894102;29;20083;-77
2022/04/13 09:34:56;;;;;;;14.18;7.78;;;21.90;45.00;;;;;;4893847;29;20040;-77
2022/04/13 09:37:23;;;;;;;14.60;7.88;;;21.90;44.50;;;;;;4895353;29;20024;-77
2022/04/13 09:39:50;;;;;;;14.13;7.50;;;21.90;44.50;;;;;;4895902;29;20032;-76
2022/04/13 09:42:16;;;;;;;14.18;7.85;;;21.90;44.90;;;;;;4878402;29;20032;-74
2022/04/13 09:44:42;;;;;;;13.68;7.97;;;21.90;44.80;;;;;;4874893;29;20389;-77
2022/04/13 09:47:10;;;;;;;13.13;7.75;;;21.90;44.70;;;;;;4878327;29;20111;-77
2022/04/13 09:49:45;;;;;;;13.10;7.47;;;21.90;44.70;;;;;;4890801;29;20040;-76
2022/04/13 09:52:11;;;;;;;14.73;7.95;;;21.90;44.70;;;;;;4895296;29;20028;-76
2022/04/13 09:54:44;;;;;;;13.38;7.57;;;21.90;44.70;;;;;;4894127;29;20047;-76
2022/04/13 09:57:23;;;;;;;13.73;7.70;;;21.90;44.80;;;;;;4910949;29;20450;-76
2022/04/13 09:59:56;;;;;;;12.93;7.72;;;21.90;45.00;;;;;;4928766;23;20044;-74
2022/04/13 10:02:38;;;;;;;13.07;7.72;;;22.00;45.10;;;;;;4930782;29;20036;-75
2022/04/13 10:05:21;;;;;;;13.38;7.70;;;21.90;45.00;;;;;;4942112;29;20378;-74
2022/04/13 10:08:10;;;;;;;14.57;7.32;;;22.00;45.00;;;;;;4948637;29;20035;-75
2022/04/13 10:10:46;;;;;;;12.55;7.40;;;21.90;44.90;;;;;;4950243;28;20536;-75
2022/04/13 10:13:29;;;;;;;11.93;6.40;;;22.00;45.30;;;;;;4948545;29;20027;-75
2022/04/13 10:15:59;;;;;;;12.55;7.25;;;22.00;45.20;;;;;;4930058;29;20110;-75
2022/04/13 10:18:27;;;;;;;13.10;7.13;;;22.00;45.20;;;;;;4933448;29;20034;-74
2022/04/13 10:20:53;;;;;;;12.23;7.28;;;22.00;45.20;;;;;;4935649;29;20079;-75
2022/04/13 10:23:19;;;;;;;11.15;6.65;;;22.00;45.20;;;;;;4942006;29;20530;-74
2022/04/13 10:25:45;;;;;;;13.65;7.15;;;22.00;45.50;;;;;;4952166;29;20284;-74
2022/04/13 10:28:14;;;;;;;12.43;7.10;;;22.00;45.50;;;;;;4953221;28;20067;-74
2022/04/13 10:30:42;;;;;;;12.93;7.00;;;22.00;45.40;;;;;;4932938;29;20027;-74
2022/04/13 10:33:10;;;;;;;14.02;7.53;;;22.00;45.50;;;;;;4936375;29;20036;-74
2022/04/13 10:35:38;;;;;;;12.38;7.07;;;22.00;45.60;;;;;;4936811;29;20031;-75
2022/04/13 10:38:04;;;;;;;11.73;6.22;;;22.00;45.60;;;;;;4935960;29;20034;-75
2022/04/13 10:40:35;;;;;;;14.85;8.00;;;22.00;45.50;;;;;;4936340;29;20388;-75
2022/04/13 10:43:03;;;;;;;11.68;6.97;;;22.00;45.60;;;;;;4935134;29;20042;-75
2022/04/13 10:45:30;;;;;;;12.73;6.72;;;22.00;45.60;;;;;;4935761;29;20036;-74
2022/04/13 10:48:00;;;;;;;10.95;6.43;;;22.00;45.60;;;;;;4935559;29;20028;-75
2022/04/13 10:50:34;;;;;;;11.10;6.50;;;22.00;45.70;;;;;;4936315;28;20043;-75
2022/04/13 10:53:30;;;;;;;10.70;6.53;;;22.00;45.70;;;;;;4935918;29;20079;-74
2022/04/13 10:56:00;;;;;;;12.95;7.28;;;22.00;45.70;;;;;;4935646;29;20028;-74
2022/04/13 10:58:41;;;;;;;11.85;7.13;;;22.00;45.70;;;;;;4934559;29;20468;-74
2022/04/13 11:01:14;;;;;;;10.40;6.35;;;22.00;45.80;;;;;;4935864;29;20031;-74
2022/04/13 11:03:41;;;;;;;10.65;6.60;;;22.00;45.70;;;;;;4935632;29;20036;-73
2022/04/13 11:06:08;;;;;;;12.30;7.10;;;22.00;45.80;;;;;;4936044;29;20137;-74
2022/04/13 11:08:51;;;;;;;11.75;6.40;;;22.00;45.80;;;;;;4952017;29;20083;-74
2022/04/13 11:11:20;;;;;;;11.68;6.75;;;22.00;45.80;;;;;;4951320;29;20042;-73
2022/04/13 11:13:51;;;;;;;12.27;6.70;;;22.00;45.80;;;;;;4935835;29;20035;-74
2022/04/13 11:16:24;;;;;;;14.18;7.00;;;22.00;45.80;;;;;;4932676;29;20855;-75
2022/04/13 11:19:05;;;;;;;14.48;7.22;;;22.00;45.50;;;;;;4926990;29;20020;-75
2022/04/13 11:21:31;;;;;;;12.50;7.82;;;22.00;46.00;;;;;;4927390;29;20131;-71
2022/04/13 11:23:57;;;;;;;14.73;7.70;;;22.00;46.10;;;;;;4915461;29;20058;-71
2022/04/13 11:26:34;;;;;;;13.38;7.57;;;22.00;46.30;;;;;;4935539;29;20044;-71
2022/04/13 11:29:09;;;;;;;14.82;7.07;;;22.00;44.60;;;;;;4936709;28;20047;-71
2022/04/13 11:32:00;;;;;;;12.85;6.80;;;22.00;45.10;;;;;;4935723;29;20060;-71
2022/04/13 11:34:30;;;;;;;15.57;7.07;;;22.00;44.40;;;;;;4928419;29;20408;-70
2022/04/13 11:37:00;;;;;;;11.10;6.45;;;22.10;44.60;;;;;;4936617;29;20028;-71
2022/04/13 11:39:47;;;;;;;18.35;7.75;;;22.20;43.20;;;;;;4931172;29;20511;-70
2022/04/13 11:42:34;;;;;;;33.00;8.82;;;22.20;44.80;;;;;;4935425;29;20846;-70
2022/04/13 11:45:04;;;;;;;58.88;10.02;;;22.20;50.40;;;;;;4935482;29;20408;-70
2022/04/13 11:47:46;;;;;;;40.22;9.48;;;22.20;47.60;;;;;;4934777;29;20039;-70
2022/04/13 11:50:18;;;;;;;39.17;10.18;;;22.30;52.30;;;;;;4935336;29;20038;-70
2022/04/13 11:52:59;;;;;;;48.10;10.55;;;22.30;52.30;;;;;;4935853;29;20046;-70
2022/04/13 11:55:33;;;;;;;33.33;9.75;;;22.20;55.80;;;;;;4935074;29;20027;-70
2022/04/13 11:58:06;;;;;;;42.65;11.65;;;22.30;48.30;;;;;;4933685;29;20032;-70
2022/04/13 12:00:50;;;;;;;31.50;9.02;;;22.30;54.40;;;;;;4930383;29;20040;-70
2022/04/13 12:03:31;;;;;;;30.52;8.18;;;22.20;50.40;;;;;;4926751;29;20112;-69
2022/04/13 12:06:02;;;;;;;28.10;7.40;;;22.20;49.70;;;;;;4930094;29;20028;-70
2022/04/13 12:08:32;;;;;;;24.63;7.78;;;22.20;48.80;;;;;;4942837;29;20035;-70
2022/04/13 12:10:59;;;;;;;;;;;22.20;44.60;;;;;;4950964;29;20194;-70
2022/04/13 12:13:27;;;;;;;18.90;7.78;;;22.20;49.50;;;;;;4952047;28;19910;-70
2022/04/13 12:15:56;;;;;;;26.90;7.25;;;22.10;45.60;;;;;;4918783;29;20035;-70
2022/04/13 12:18:24;;;;;;;21.45;7.13;;;22.10;45.50;;;;;;4949948;29;20488;-69
2022/04/13 12:20:51;;;;;;;22.92;8.25;;;22.10;43.00;;;;;;4934705;29;20047;-69
2022/04/13 12:23:25;;;;;;;18.33;7.95;;;22.10;44.60;;;;;;4950775;29;20487;-69
2022/04/13 12:25:53;;;;;;;18.42;8.02;;;22.20;43.00;;;;;;4951321;28;20035;-71
2022/04/13 12:28:20;;;;;;;16.23;7.07;;;22.10;45.20;;;;;;4952522;28;20046;-69
2022/04/13 12:31:00;;;;;;;13.85;6.78;;;22.20;44.30;;;;;;4952250;28;20027;-69
2022/04/13 12:33:27;;;;;;;17.08;7.60;;;22.20;41.70;;;;;;4951412;28;20102;-69
2022/04/13 12:36:00;;;;;;;15.25;7.05;;;22.20;43.40;;;;;;4949382;29;20043;-69
2022/04/13 12:38:31;;;;;;;18.67;6.78;;;22.20;42.90;;;;;;4950690;28;20035;-69
2022/04/13 12:41:08;;;;;;;16.95;6.38;;;22.10;42.60;;;;;;4948596;28;20415;-69
2022/04/13 12:43:35;;;;;;;17.42;6.53;;;22.10;43.20;;;;;;4949730;28;20035;-68
2022/04/13 12:46:12;;;;;;;11.73;5.75;;;22.10;42.20;;;;;;4933143;29;20042;-69
2022/04/13 12:48:39;;;;;;;11.25;5.13;;;22.10;41.50;;;;;;4950988;28;20417;-69